sensor_id;sensor_type;location;lat;lon;timestamp;P1;durP1;ratioP1;P2;durP2;ratioP2
63690;SDS011;49837;57.280;27.070;2023-05-01T00:00:08;1.8;;;1.3;;
63690;SDS011;49837;57.280;27.070;2023-05-01T00:01:08;2.2;;;1.1;;
63690;SDS011;49837;57.280;27.070;2023-05-01T00:02:08;1.7;;;1.2;;
63690;SDS011;49837;57.280;27.070;2023-05-01T00:03:09;2.3;;;1.3;;
63690;SDS011;49837;57.280;27.070;2023-05-01T00:04:09;2.9;;;1.4;;
63690;SDS011;49837;57.280;27.070;2023-05-01T00:05:09;2.9;;;1.3;;
63690;SDS011;49837;57.280;27.070;2023-05-01T00:06:10;2.8;;;1.3;;
63690;SDS011;49837;57.280;27.070;2023-05-01T00:07:10;3.7;;;1.3;;
63690;SDS011;49837;57.280;27.070;2023-05-01T00:08:11;2.3;;;1.3;;
63690;SDS011;49837;57.280;27.070;2023-05-01T00:09:11;2.7;;;1.3;;
63690;SDS011;49837;57.280;27.070;2023-05-01T00:10:11;2.7;;;1.3;;
63690;SDS011;49837;57.280;27.070;2023-05-01T00:11:11;2.1;;;1.5;;
63690;SDS011;49837;57.280;27.070;2023-05-01T00:12:12;1.3;;;1.2;;
63690;SDS011;49837;57.280;27.070;2023-05-01T00:13:12;2.0;;;1.2;;
63690;SDS011;49837;57.280;27.070;2023-05-01T00:14:12;2.0;;;1.2;;
63690;SDS011;49837;57.280;27.070;2023-05-01T00:15:13;3.2;;;1.2;;
63690;SDS011;49837;57.280;27.070;2023-05-01T00:16:13;1.6;;;1.2;;
63690;SDS011;49837;57.280;27.070;2023-05-01T00:17:13;3.3;;;1.5;;
63690;SDS011;49837;57.280;27.070;2023-05-01T00:18:14;3.7;;;1.1;;
63690;SDS011;49837;57.280;27.070;2023-05-01T00:19:14;2.3;;;1.1;;
63690;SDS011;49837;57.280;27.070;2023-05-01T00:20:14;1.9;;;1.2;;
63690;SDS011;49837;57.280;27.070;2023-05-01T00:21:15;1.9;;;1.2;;
63690;SDS011;49837;57.280;27.070;2023-05-01T00:22:15;3.1;;;1.3;;
63690;SDS011;49837;57.280;27.070;2023-05-01T00:23:15;3.5;;;1.4;;
63690;SDS011;49837;57.280;27.070;2023-05-01T00:24:16;4.2;;;1.4;;
63690;SDS011;49837;57.280;27.070;2023-05-01T00:25:16;3.4;;;1.4;;
63690;SDS011;49837;57.280;27.070;2023-05-01T00:26:16;4.8;;;1.6;;
63690;SDS011;49837;57.280;27.070;2023-05-01T00:27:17;2.8;;;1.2;;
63690;SDS011;49837;57.280;27.070;2023-05-01T00:28:17;2.5;;;1.3;;
63690;SDS011;49837;57.280;27.070;2023-05-01T00:29:17;2.3;;;1.3;;
63690;SDS011;49837;57.280;27.070;2023-05-01T00:30:18;2.3;;;1.4;;
63690;SDS011;49837;57.280;27.070;2023-05-01T00:31:18;1.9;;;1.4;;
63690;SDS011;49837;57.280;27.070;2023-05-01T00:32:19;2.0;;;1.2;;
63690;SDS011;49837;57.280;27.070;2023-05-01T00:33:19;1.3;;;1.2;;
63690;SDS011;49837;57.280;27.070;2023-05-01T00:34:19;3.6;;;1.2;;
63690;SDS011;49837;57.280;27.070;2023-05-01T00:35:19;3.2;;;1.4;;
63690;SDS011;49837;57.280;27.070;2023-05-01T00:36:20;3.0;;;1.5;;
63690;SDS011;49837;57.280;27.070;2023-05-01T00:37:20;2.1;;;1.3;;
63690;SDS011;49837;57.280;27.070;2023-05-01T00:38:20;3.0;;;1.3;;
63690;SDS011;49837;57.280;27.070;2023-05-01T00:39:21;2.2;;;1.6;;
63690;SDS011;49837;57.280;27.070;2023-05-01T00:40:21;3.0;;;1.3;;
63690;SDS011;49837;57.280;27.070;2023-05-01T00:41:22;3.0;;;1.4;;
63690;SDS011;49837;57.280;27.070;2023-05-01T00:42:22;1.7;;;1.2;;
63690;SDS011;49837;57.280;27.070;2023-05-01T00:43:22;2.2;;;1.3;;
63690;SDS011;49837;57.280;27.070;2023-05-01T00:44:22;3.0;;;1.3;;
63690;SDS011;49837;57.280;27.070;2023-05-01T00:45:23;2.2;;;1.4;;
63690;SDS011;49837;57.280;27.070;2023-05-01T00:46:23;1.9;;;1.2;;
63690;SDS011;49837;57.280;27.070;2023-05-01T00:47:24;2.2;;;1.2;;
63690;SDS011;49837;57.280;27.070;2023-05-01T00:48:24;1.9;;;1.3;;
63690;SDS011;49837;57.280;27.070;2023-05-01T00:49:24;3.4;;;1.5;;
63690;SDS011;49837;57.280;27.070;2023-05-01T00:50:25;3.4;;;1.5;;
63690;SDS011;49837;57.280;27.070;2023-05-01T00:51:25;2.4;;;1.3;;
63690;SDS011;49837;57.280;27.070;2023-05-01T00:52:25;2.6;;;1.4;;
63690;SDS011;49837;57.280;27.070;2023-05-01T00:53:26;3.0;;;1.1;;
63690;SDS011;49837;57.280;27.070;2023-05-01T00:54:26;2.2;;;1.2;;
63690;SDS011;49837;57.280;27.070;2023-05-01T00:55:26;1.9;;;1.3;;
63690;SDS011;49837;57.280;27.070;2023-05-01T00:56:27;2.4;;;1.4;;
63690;SDS011;49837;57.280;27.070;2023-05-01T00:57:28;2.0;;;1.2;;
63690;SDS011;49837;57.280;27.070;2023-05-01T00:58:27;3.8;;;1.7;;
63690;SDS011;49837;57.280;27.070;2023-05-01T00:59:28;1.5;;;1.1;;
63690;SDS011;49837;57.280;27.070;2023-05-01T01:00:28;2.4;;;1.3;;
63690;SDS011;49837;57.280;27.070;2023-05-01T01:01:28;1.8;;;1.3;;
63690;SDS011;49837;57.280;27.070;2023-05-01T01:02:29;1.6;;;1.2;;
63690;SDS011;49837;57.280;27.070;2023-05-01T01:03:29;2.5;;;1.3;;
63690;SDS011;49837;57.280;27.070;2023-05-01T01:04:29;3.3;;;1.2;;
63690;SDS011;49837;57.280;27.070;2023-05-01T01:05:30;1.7;;;1.5;;
63690;SDS011;49837;57.280;27.070;2023-05-01T01:07:40;2.4;;;1.3;;
63690;SDS011;49837;57.280;27.070;2023-05-01T01:08:41;2.2;;;1.3;;
63690;SDS011;49837;57.280;27.070;2023-05-01T01:10:52;2.0;;;1.2;;
63690;SDS011;49837;57.280;27.070;2023-05-01T01:12:02;2.2;;;1.2;;
63690;SDS011;49837;57.280;27.070;2023-05-01T01:12:57;2.2;;;1.2;;
63690;SDS011;49837;57.280;27.070;2023-05-01T01:13:55;3.3;;;1.2;;
63690;SDS011;49837;57.280;27.070;2023-05-01T01:18:14;2.2;;;1.4;;
63690;SDS011;49837;57.280;27.070;2023-05-01T01:19:21;2.8;;;1.3;;
63690;SDS011;49837;57.280;27.070;2023-05-01T01:20:22;2.7;;;1.3;;
63690;SDS011;49837;57.280;27.070;2023-05-01T01:22:23;3.1;;;1.5;;
63690;SDS011;49837;57.280;27.070;2023-05-01T01:26:38;2.5;;;1.4;;
63690;SDS011;49837;57.280;27.070;2023-05-01T01:28:48;2.3;;;1.4;;
63690;SDS011;49837;57.280;27.070;2023-05-01T01:29:55;2.5;;;1.3;;
63690;SDS011;49837;57.280;27.070;2023-05-01T01:32:59;2.3;;;1.3;;
63690;SDS011;49837;57.280;27.070;2023-05-01T01:34:18;2.5;;;1.3;;
63690;SDS011;49837;57.280;27.070;2023-05-01T01:35:09;1.7;;;1.4;;
63690;SDS011;49837;57.280;27.070;2023-05-01T01:36:07;2.5;;;1.3;;
63690;SDS011;49837;57.280;27.070;2023-05-01T01:37:22;2.7;;;1.5;;
63690;SDS011;49837;57.280;27.070;2023-05-01T01:38:19;2.5;;;1.3;;
63690;SDS011;49837;57.280;27.070;2023-05-01T01:39:09;1.9;;;1.2;;
63690;SDS011;49837;57.280;27.070;2023-05-01T01:40:14;2.9;;;1.6;;
63690;SDS011;49837;57.280;27.070;2023-05-01T01:41:13;3.9;;;1.3;;
63690;SDS011;49837;57.280;27.070;2023-05-01T01:42:19;2.9;;;1.5;;
63690;SDS011;49837;57.280;27.070;2023-05-01T01:43:17;2.5;;;1.4;;
63690;SDS011;49837;57.280;27.070;2023-05-01T01:44:19;3.3;;;1.3;;
63690;SDS011;49837;57.280;27.070;2023-05-01T01:45:22;3.1;;;1.4;;
63690;SDS011;49837;57.280;27.070;2023-05-01T01:46:21;1.5;;;1.1;;
63690;SDS011;49837;57.280;27.070;2023-05-01T01:47:23;3.1;;;1.5;;
63690;SDS011;49837;57.280;27.070;2023-05-01T01:48:26;2.8;;;1.5;;
63690;SDS011;49837;57.280;27.070;2023-05-01T01:49:24;2.6;;;1.5;;
63690;SDS011;49837;57.280;27.070;2023-05-01T01:50:24;2.6;;;1.4;;
63690;SDS011;49837;57.280;27.070;2023-05-01T01:51:24;2.4;;;1.7;;
63690;SDS011;49837;57.280;27.070;2023-05-01T01:52:24;2.6;;;1.5;;
63690;SDS011;49837;57.280;27.070;2023-05-01T01:53:25;2.6;;;1.6;;
63690;SDS011;49837;57.280;27.070;2023-05-01T01:54:27;3.4;;;1.4;;
63690;SDS011;49837;57.280;27.070;2023-05-01T01:55:29;2.8;;;1.3;;
63690;SDS011;49837;57.280;27.070;2023-05-01T01:56:29;1.9;;;1.4;;
63690;SDS011;49837;57.280;27.070;2023-05-01T01:57:30;3.0;;;1.4;;
63690;SDS011;49837;57.280;27.070;2023-05-01T01:58:30;3.2;;;1.5;;
63690;SDS011;49837;57.280;27.070;2023-05-01T01:59:30;3.5;;;1.3;;
63690;SDS011;49837;57.280;27.070;2023-05-01T02:00:30;2.1;;;1.3;;
63690;SDS011;49837;57.280;27.070;2023-05-01T02:01:31;3.5;;;2.4;;
63690;SDS011;49837;57.280;27.070;2023-05-01T02:02:31;2.0;;;1.2;;
63690;SDS011;49837;57.280;27.070;2023-05-01T02:03:31;2.6;;;1.4;;
63690;SDS011;49837;57.280;27.070;2023-05-01T02:04:31;2.1;;;1.3;;
63690;SDS011;49837;57.280;27.070;2023-05-01T02:05:32;2.2;;;1.3;;
63690;SDS011;49837;57.280;27.070;2023-05-01T02:06:32;2.0;;;1.5;;
63690;SDS011;49837;57.280;27.070;2023-05-01T02:07:34;2.2;;;1.3;;
63690;SDS011;49837;57.280;27.070;2023-05-01T02:08:35;1.8;;;1.2;;
63690;SDS011;49837;57.280;27.070;2023-05-01T02:09:35;3.7;;;1.8;;
63690;SDS011;49837;57.280;27.070;2023-05-01T02:10:35;3.0;;;1.5;;
63690;SDS011;49837;57.280;27.070;2023-05-01T02:11:36;2.5;;;1.3;;
63690;SDS011;49837;57.280;27.070;2023-05-01T02:12:36;2.2;;;1.3;;
63690;SDS011;49837;57.280;27.070;2023-05-01T02:13:36;1.4;;;1.3;;
63690;SDS011;49837;57.280;27.070;2023-05-01T02:14:37;3.6;;;1.7;;
63690;SDS011;49837;57.280;27.070;2023-05-01T02:15:37;1.7;;;1.3;;
63690;SDS011;49837;57.280;27.070;2023-05-01T02:16:37;1.9;;;1.4;;
63690;SDS011;49837;57.280;27.070;2023-05-01T02:17:38;1.9;;;1.5;;
63690;SDS011;49837;57.280;27.070;2023-05-01T02:18:38;1.4;;;1.1;;
63690;SDS011;49837;57.280;27.070;2023-05-01T02:19:38;2.3;;;1.2;;
63690;SDS011;49837;57.280;27.070;2023-05-01T02:20:39;3.0;;;1.8;;
63690;SDS011;49837;57.280;27.070;2023-05-01T02:21:39;6.9;;;2.1;;
63690;SDS011;49837;57.280;27.070;2023-05-01T02:22:40;2.3;;;1.3;;
63690;SDS011;49837;57.280;27.070;2023-05-01T02:23:40;3.4;;;1.4;;
63690;SDS011;49837;57.280;27.070;2023-05-01T02:24:40;2.9;;;1.7;;
63690;SDS011;49837;57.280;27.070;2023-05-01T02:25:40;2.7;;;1.3;;
63690;SDS011;49837;57.280;27.070;2023-05-01T02:26:42;2.6;;;1.4;;
63690;SDS011;49837;57.280;27.070;2023-05-01T02:27:47;1.9;;;1.3;;
63690;SDS011;49837;57.280;27.070;2023-05-01T02:28:45;2.1;;;1.5;;
63690;SDS011;49837;57.280;27.070;2023-05-01T02:29:45;2.6;;;1.5;;
63690;SDS011;49837;57.280;27.070;2023-05-01T02:30:46;2.8;;;1.5;;
63690;SDS011;49837;57.280;27.070;2023-05-01T02:31:46;3.4;;;1.3;;
63690;SDS011;49837;57.280;27.070;2023-05-01T02:32:46;2.5;;;1.6;;
63690;SDS011;49837;57.280;27.070;2023-05-01T02:33:47;1.3;;;1.1;;
63690;SDS011;49837;57.280;27.070;2023-05-01T02:34:47;2.3;;;1.3;;
63690;SDS011;49837;57.280;27.070;2023-05-01T02:35:47;2.6;;;1.5;;
63690;SDS011;49837;57.280;27.070;2023-05-01T02:36:48;3.0;;;1.2;;
63690;SDS011;49837;57.280;27.070;2023-05-01T02:37:48;2.5;;;1.2;;
63690;SDS011;49837;57.280;27.070;2023-05-01T02:38:48;1.9;;;1.3;;
63690;SDS011;49837;57.280;27.070;2023-05-01T02:39:49;6.2;;;1.5;;
63690;SDS011;49837;57.280;27.070;2023-05-01T02:40:50;1.3;;;1.2;;
63690;SDS011;49837;57.280;27.070;2023-05-01T02:41:52;3.0;;;1.3;;
63690;SDS011;49837;57.280;27.070;2023-05-01T02:42:53;3.0;;;1.3;;
63690;SDS011;49837;57.280;27.070;2023-05-01T02:43:55;3.0;;;1.3;;
63690;SDS011;49837;57.280;27.070;2023-05-01T02:44:57;2.5;;;1.4;;
63690;SDS011;49837;57.280;27.070;2023-05-01T02:45:57;2.5;;;1.3;;
63690;SDS011;49837;57.280;27.070;2023-05-01T02:46:58;1.9;;;1.4;;
63690;SDS011;49837;57.280;27.070;2023-05-01T02:47:58;2.7;;;1.3;;
63690;SDS011;49837;57.280;27.070;2023-05-01T02:48:59;2.0;;;1.4;;
63690;SDS011;49837;57.280;27.070;2023-05-01T02:49:59;1.9;;;1.5;;
63690;SDS011;49837;57.280;27.070;2023-05-01T02:50:59;3.3;;;1.5;;
63690;SDS011;49837;57.280;27.070;2023-05-01T02:51:59;1.5;;;1.3;;
63690;SDS011;49837;57.280;27.070;2023-05-01T02:53:00;1.8;;;1.3;;
63690;SDS011;49837;57.280;27.070;2023-05-01T02:54:00;1.8;;;1.3;;
63690;SDS011;49837;57.280;27.070;2023-05-01T02:55:00;2.7;;;1.5;;
63690;SDS011;49837;57.280;27.070;2023-05-01T02:56:01;1.8;;;1.4;;
63690;SDS011;49837;57.280;27.070;2023-05-01T02:57:02;2.1;;;1.4;;
63690;SDS011;49837;57.280;27.070;2023-05-01T02:58:03;2.8;;;1.6;;
63690;SDS011;49837;57.280;27.070;2023-05-01T02:59:03;1.8;;;1.4;;
63690;SDS011;49837;57.280;27.070;2023-05-01T03:00:03;3.1;;;1.4;;
63690;SDS011;49837;57.280;27.070;2023-05-01T03:01:04;3.0;;;1.1;;
63690;SDS011;49837;57.280;27.070;2023-05-01T03:02:04;2.1;;;1.3;;
63690;SDS011;49837;57.280;27.070;2023-05-01T03:03:04;2.5;;;1.3;;
63690;SDS011;49837;57.280;27.070;2023-05-01T03:04:04;4.0;;;1.3;;
63690;SDS011;49837;57.280;27.070;2023-05-01T03:05:05;3.3;;;1.3;;
63690;SDS011;49837;57.280;27.070;2023-05-01T03:06:05;2.7;;;1.3;;
63690;SDS011;49837;57.280;27.070;2023-05-01T03:07:05;3.3;;;1.5;;
63690;SDS011;49837;57.280;27.070;2023-05-01T03:08:06;2.0;;;1.3;;
63690;SDS011;49837;57.280;27.070;2023-05-01T03:09:06;2.3;;;1.2;;
63690;SDS011;49837;57.280;27.070;2023-05-01T03:10:07;1.6;;;1.2;;
63690;SDS011;49837;57.280;27.070;2023-05-01T03:11:07;1.8;;;1.2;;
63690;SDS011;49837;57.280;27.070;2023-05-01T03:12:07;2.2;;;1.2;;
63690;SDS011;49837;57.280;27.070;2023-05-01T03:13:08;1.5;;;1.0;;
63690;SDS011;49837;57.280;27.070;2023-05-01T03:14:08;1.5;;;1.2;;
63690;SDS011;49837;57.280;27.070;2023-05-01T03:15:08;2.1;;;1.3;;
63690;SDS011;49837;57.280;27.070;2023-05-01T03:16:08;2.3;;;1.3;;
63690;SDS011;49837;57.280;27.070;2023-05-01T03:17:09;3.0;;;1.3;;
63690;SDS011;49837;57.280;27.070;2023-05-01T03:18:09;1.9;;;1.2;;
63690;SDS011;49837;57.280;27.070;2023-05-01T03:19:09;2.1;;;1.1;;
63690;SDS011;49837;57.280;27.070;2023-05-01T03:20:10;1.6;;;1.1;;
63690;SDS011;49837;57.280;27.070;2023-05-01T03:21:10;2.1;;;1.3;;
63690;SDS011;49837;57.280;27.070;2023-05-01T03:22:10;1.4;;;1.2;;
63690;SDS011;49837;57.280;27.070;2023-05-01T03:23:11;1.5;;;1.3;;
63690;SDS011;49837;57.280;27.070;2023-05-01T03:24:11;2.5;;;1.2;;
63690;SDS011;49837;57.280;27.070;2023-05-01T03:25:11;2.1;;;1.2;;
63690;SDS011;49837;57.280;27.070;2023-05-01T03:26:11;2.6;;;1.2;;
63690;SDS011;49837;57.280;27.070;2023-05-01T03:27:12;2.2;;;1.3;;
63690;SDS011;49837;57.280;27.070;2023-05-01T03:28:12;5.4;;;2.1;;
63690;SDS011;49837;57.280;27.070;2023-05-01T03:29:12;1.9;;;1.3;;
63690;SDS011;49837;57.280;27.070;2023-05-01T03:30:13;2.5;;;1.4;;
63690;SDS011;49837;57.280;27.070;2023-05-01T03:31:13;1.8;;;1.3;;
63690;SDS011;49837;57.280;27.070;2023-05-01T03:32:14;1.7;;;1.3;;
63690;SDS011;49837;57.280;27.070;2023-05-01T03:33:14;1.7;;;1.4;;
63690;SDS011;49837;57.280;27.070;2023-05-01T03:34:14;2.8;;;1.3;;
63690;SDS011;49837;57.280;27.070;2023-05-01T03:35:15;5.2;;;2.1;;
63690;SDS011;49837;57.280;27.070;2023-05-01T03:36:15;7.2;;;2.3;;
63690;SDS011;49837;57.280;27.070;2023-05-01T03:37:15;10.0;;;3.1;;
63690;SDS011;49837;57.280;27.070;2023-05-01T03:38:16;12.1;;;3.8;;
63690;SDS011;49837;57.280;27.070;2023-05-01T03:39:16;36.6;;;10.9;;
63690;SDS011;49837;57.280;27.070;2023-05-01T03:40:16;74.3;;;21.9;;
63690;SDS011;49837;57.280;27.070;2023-05-01T03:41:17;129.1;;;38.1;;
63690;SDS011;49837;57.280;27.070;2023-05-01T03:42:17;210.5;;;59.3;;
63690;SDS011;49837;57.280;27.070;2023-05-01T03:43:17;229.1;;;65.9;;
63690;SDS011;49837;57.280;27.070;2023-05-01T03:44:18;222.6;;;65.1;;
63690;SDS011;49837;57.280;27.070;2023-05-01T03:45:18;209.9;;;59.9;;
63690;SDS011;49837;57.280;27.070;2023-05-01T03:46:18;165.7;;;50.3;;
63690;SDS011;49837;57.280;27.070;2023-05-01T03:47:19;103.0;;;32.0;;
63690;SDS011;49837;57.280;27.070;2023-05-01T03:48:19;76.4;;;23.9;;
63690;SDS011;49837;57.280;27.070;2023-05-01T03:49:19;127.8;;;37.8;;
63690;SDS011;49837;57.280;27.070;2023-05-01T03:50:20;127.3;;;35.2;;
63690;SDS011;49837;57.280;27.070;2023-05-01T03:51:20;105.5;;;32.8;;
63690;SDS011;49837;57.280;27.070;2023-05-01T03:52:20;62.0;;;19.9;;
63690;SDS011;49837;57.280;27.070;2023-05-01T03:53:21;64.3;;;20.1;;
63690;SDS011;49837;57.280;27.070;2023-05-01T03:54:21;58.3;;;18.7;;
63690;SDS011;49837;57.280;27.070;2023-05-01T03:55:21;70.2;;;23.1;;
63690;SDS011;49837;57.280;27.070;2023-05-01T03:56:22;63.1;;;22.6;;
63690;SDS011;49837;57.280;27.070;2023-05-01T03:57:22;61.7;;;20.7;;
63690;SDS011;49837;57.280;27.070;2023-05-01T03:58:23;49.4;;;16.2;;
63690;SDS011;49837;57.280;27.070;2023-05-01T03:59:22;43.0;;;14.6;;
63690;SDS011;49837;57.280;27.070;2023-05-01T04:00:23;27.4;;;8.8;;
63690;SDS011;49837;57.280;27.070;2023-05-01T04:01:23;27.2;;;8.8;;
63690;SDS011;49837;57.280;27.070;2023-05-01T04:02:23;21.3;;;7.4;;
63690;SDS011;49837;57.280;27.070;2023-05-01T04:03:24;20.4;;;6.8;;
63690;SDS011;49837;57.280;27.070;2023-05-01T04:04:24;22.8;;;7.9;;
63690;SDS011;49837;57.280;27.070;2023-05-01T04:05:24;27.2;;;10.1;;
63690;SDS011;49837;57.280;27.070;2023-05-01T04:06:25;16.9;;;6.7;;
63690;SDS011;49837;57.280;27.070;2023-05-01T04:07:25;9.8;;;4.4;;
63690;SDS011;49837;57.280;27.070;2023-05-01T04:08:25;7.0;;;3.5;;
63690;SDS011;49837;57.280;27.070;2023-05-01T04:09:26;6.2;;;3.1;;
63690;SDS011;49837;57.280;27.070;2023-05-01T04:10:26;6.1;;;2.4;;
63690;SDS011;49837;57.280;27.070;2023-05-01T04:11:26;4.3;;;1.7;;
63690;SDS011;49837;57.280;27.070;2023-05-01T04:12:27;3.0;;;1.7;;
63690;SDS011;49837;57.280;27.070;2023-05-01T04:13:27;3.5;;;1.8;;
63690;SDS011;49837;57.280;27.070;2023-05-01T04:14:27;5.3;;;2.1;;
63690;SDS011;49837;57.280;27.070;2023-05-01T04:15:28;5.1;;;2.2;;
63690;SDS011;49837;57.280;27.070;2023-05-01T04:16:29;4.8;;;2.0;;
63690;SDS011;49837;57.280;27.070;2023-05-01T04:17:29;3.4;;;1.9;;
63690;SDS011;49837;57.280;27.070;2023-05-01T04:18:29;5.2;;;2.1;;
63690;SDS011;49837;57.280;27.070;2023-05-01T04:19:29;5.1;;;2.2;;
63690;SDS011;49837;57.280;27.070;2023-05-01T04:20:29;4.8;;;2.3;;
63690;SDS011;49837;57.280;27.070;2023-05-01T04:21:30;4.0;;;2.1;;
63690;SDS011;49837;57.280;27.070;2023-05-01T04:22:30;3.4;;;2.0;;
63690;SDS011;49837;57.280;27.070;2023-05-01T04:23:30;4.2;;;1.8;;
63690;SDS011;49837;57.280;27.070;2023-05-01T04:24:31;4.2;;;2.3;;
63690;SDS011;49837;57.280;27.070;2023-05-01T04:25:31;3.0;;;1.9;;
63690;SDS011;49837;57.280;27.070;2023-05-01T04:26:31;2.8;;;1.7;;
63690;SDS011;49837;57.280;27.070;2023-05-01T04:27:32;2.5;;;1.6;;
63690;SDS011;49837;57.280;27.070;2023-05-01T04:28:32;2.8;;;1.6;;
63690;SDS011;49837;57.280;27.070;2023-05-01T04:29:32;3.6;;;1.8;;
63690;SDS011;49837;57.280;27.070;2023-05-01T04:30:33;3.1;;;1.6;;
63690;SDS011;49837;57.280;27.070;2023-05-01T04:31:33;3.7;;;1.7;;
63690;SDS011;49837;57.280;27.070;2023-05-01T04:32:33;2.9;;;1.8;;
63690;SDS011;49837;57.280;27.070;2023-05-01T04:33:34;2.9;;;1.5;;
63690;SDS011;49837;57.280;27.070;2023-05-01T04:34:34;3.4;;;1.6;;
63690;SDS011;49837;57.280;27.070;2023-05-01T04:35:34;3.5;;;1.7;;
63690;SDS011;49837;57.280;27.070;2023-05-01T04:36:35;3.7;;;1.7;;
63690;SDS011;49837;57.280;27.070;2023-05-01T04:37:35;2.9;;;1.6;;
63690;SDS011;49837;57.280;27.070;2023-05-01T04:38:35;3.3;;;1.8;;
63690;SDS011;49837;57.280;27.070;2023-05-01T04:39:36;2.9;;;1.8;;
63690;SDS011;49837;57.280;27.070;2023-05-01T04:40:36;3.5;;;2.0;;
63690;SDS011;49837;57.280;27.070;2023-05-01T04:41:36;3.0;;;1.7;;
63690;SDS011;49837;57.280;27.070;2023-05-01T04:42:37;5.9;;;1.8;;
63690;SDS011;49837;57.280;27.070;2023-05-01T04:43:37;3.4;;;1.7;;
63690;SDS011;49837;57.280;27.070;2023-05-01T04:44:37;2.7;;;1.5;;
63690;SDS011;49837;57.280;27.070;2023-05-01T04:45:38;2.6;;;1.6;;
63690;SDS011;49837;57.280;27.070;2023-05-01T04:46:38;3.4;;;1.7;;
63690;SDS011;49837;57.280;27.070;2023-05-01T04:47:38;4.3;;;1.8;;
63690;SDS011;49837;57.280;27.070;2023-05-01T04:48:39;3.5;;;1.9;;
63690;SDS011;49837;57.280;27.070;2023-05-01T04:49:39;2.2;;;1.5;;
63690;SDS011;49837;57.280;27.070;2023-05-01T04:50:39;5.0;;;2.0;;
63690;SDS011;49837;57.280;27.070;2023-05-01T04:51:40;3.9;;;1.6;;
63690;SDS011;49837;57.280;27.070;2023-05-01T04:52:40;2.9;;;1.9;;
63690;SDS011;49837;57.280;27.070;2023-05-01T04:53:41;5.8;;;2.2;;
63690;SDS011;49837;57.280;27.070;2023-05-01T04:54:41;2.6;;;1.7;;
63690;SDS011;49837;57.280;27.070;2023-05-01T04:55:41;2.6;;;1.8;;
63690;SDS011;49837;57.280;27.070;2023-05-01T04:56:41;3.4;;;1.8;;
63690;SDS011;49837;57.280;27.070;2023-05-01T04:57:42;2.0;;;1.4;;
63690;SDS011;49837;57.280;27.070;2023-05-01T04:58:43;3.0;;;2.0;;
63690;SDS011;49837;57.280;27.070;2023-05-01T04:59:43;4.0;;;1.7;;
63690;SDS011;49837;57.280;27.070;2023-05-01T05:00:43;3.4;;;1.7;;
63690;SDS011;49837;57.280;27.070;2023-05-01T05:01:43;2.5;;;1.7;;
63690;SDS011;49837;57.280;27.070;2023-05-01T05:02:44;2.8;;;1.8;;
63690;SDS011;49837;57.280;27.070;2023-05-01T05:03:44;3.0;;;2.0;;
63690;SDS011;49837;57.280;27.070;2023-05-01T05:04:45;2.3;;;1.6;;
63690;SDS011;49837;57.280;27.070;2023-05-01T05:05:46;3.4;;;2.1;;
63690;SDS011;49837;57.280;27.070;2023-05-01T05:06:46;3.6;;;1.8;;
63690;SDS011;49837;57.280;27.070;2023-05-01T05:07:46;1.9;;;1.7;;
63690;SDS011;49837;57.280;27.070;2023-05-01T05:08:47;3.4;;;2.0;;
63690;SDS011;49837;57.280;27.070;2023-05-01T05:09:47;2.8;;;1.7;;
63690;SDS011;49837;57.280;27.070;2023-05-01T05:10:47;3.4;;;1.7;;
63690;SDS011;49837;57.280;27.070;2023-05-01T05:11:48;3.4;;;1.9;;
63690;SDS011;49837;57.280;27.070;2023-05-01T05:12:48;3.2;;;1.9;;
63690;SDS011;49837;57.280;27.070;2023-05-01T05:13:48;4.2;;;2.1;;
63690;SDS011;49837;57.280;27.070;2023-05-01T05:14:49;3.6;;;1.5;;
63690;SDS011;49837;57.280;27.070;2023-05-01T05:15:49;2.8;;;1.7;;
63690;SDS011;49837;57.280;27.070;2023-05-01T05:16:49;3.3;;;1.6;;
63690;SDS011;49837;57.280;27.070;2023-05-01T05:17:50;2.3;;;1.5;;
63690;SDS011;49837;57.280;27.070;2023-05-01T05:18:50;3.6;;;1.7;;
63690;SDS011;49837;57.280;27.070;2023-05-01T05:19:50;3.4;;;1.6;;
63690;SDS011;49837;57.280;27.070;2023-05-01T05:20:51;4.4;;;1.8;;
63690;SDS011;49837;57.280;27.070;2023-05-01T05:21:51;2.9;;;1.7;;
63690;SDS011;49837;57.280;27.070;2023-05-01T05:22:51;2.2;;;1.8;;
63690;SDS011;49837;57.280;27.070;2023-05-01T05:23:52;2.6;;;1.5;;
63690;SDS011;49837;57.280;27.070;2023-05-01T05:24:53;4.0;;;1.8;;
63690;SDS011;49837;57.280;27.070;2023-05-01T05:25:53;1.9;;;1.5;;
63690;SDS011;49837;57.280;27.070;2023-05-01T05:26:53;3.8;;;1.8;;
63690;SDS011;49837;57.280;27.070;2023-05-01T05:27:53;4.3;;;1.7;;
63690;SDS011;49837;57.280;27.070;2023-05-01T05:28:54;3.3;;;1.9;;
63690;SDS011;49837;57.280;27.070;2023-05-01T05:29:54;2.9;;;1.8;;
63690;SDS011;49837;57.280;27.070;2023-05-01T05:30:55;3.7;;;1.5;;
63690;SDS011;49837;57.280;27.070;2023-05-01T05:31:55;3.5;;;1.8;;
63690;SDS011;49837;57.280;27.070;2023-05-01T05:32:55;2.6;;;1.6;;
63690;SDS011;49837;57.280;27.070;2023-05-01T05:33:55;2.7;;;1.5;;
63690;SDS011;49837;57.280;27.070;2023-05-01T05:34:56;2.5;;;1.7;;
63690;SDS011;49837;57.280;27.070;2023-05-01T05:35:57;3.4;;;1.6;;
63690;SDS011;49837;57.280;27.070;2023-05-01T05:36:56;2.3;;;1.6;;
63690;SDS011;49837;57.280;27.070;2023-05-01T05:37:57;2.7;;;1.6;;
63690;SDS011;49837;57.280;27.070;2023-05-01T05:38:58;3.7;;;1.8;;
63690;SDS011;49837;57.280;27.070;2023-05-01T05:39:58;2.8;;;1.5;;
63690;SDS011;49837;57.280;27.070;2023-05-01T05:40:58;40.4;;;3.3;;
63690;SDS011;49837;57.280;27.070;2023-05-01T05:41:58;3.0;;;1.5;;
63690;SDS011;49837;57.280;27.070;2023-05-01T05:42:59;11.4;;;2.1;;
63690;SDS011;49837;57.280;27.070;2023-05-01T05:43:59;1.7;;;1.2;;
63690;SDS011;49837;57.280;27.070;2023-05-01T05:44:59;42.2;;;2.9;;
63690;SDS011;49837;57.280;27.070;2023-05-01T05:46:00;1.9;;;1.2;;
63690;SDS011;49837;57.280;27.070;2023-05-01T05:47:00;3.6;;;1.4;;
63690;SDS011;49837;57.280;27.070;2023-05-01T05:48:00;3.4;;;1.4;;
63690;SDS011;49837;57.280;27.070;2023-05-01T05:49:01;2.1;;;1.4;;
63690;SDS011;49837;57.280;27.070;2023-05-01T05:50:01;10.2;;;1.7;;
63690;SDS011;49837;57.280;27.070;2023-05-01T05:51:02;2.9;;;1.5;;
63690;SDS011;49837;57.280;27.070;2023-05-01T05:52:02;16.1;;;2.4;;
63690;SDS011;49837;57.280;27.070;2023-05-01T05:53:02;119.4;;;7.1;;
63690;SDS011;49837;57.280;27.070;2023-05-01T05:54:03;1.3;;;1.2;;
63690;SDS011;49837;57.280;27.070;2023-05-01T05:55:03;3.2;;;1.4;;
63690;SDS011;49837;57.280;27.070;2023-05-01T05:56:03;13.0;;;2.2;;
63690;SDS011;49837;57.280;27.070;2023-05-01T05:57:04;235.2;;;16.1;;
63690;SDS011;49837;57.280;27.070;2023-05-01T05:58:04;5.1;;;1.4;;
63690;SDS011;49837;57.280;27.070;2023-05-01T05:59:05;1.8;;;1.3;;
63690;SDS011;49837;57.280;27.070;2023-05-01T06:00:05;1.9;;;1.3;;
63690;SDS011;49837;57.280;27.070;2023-05-01T06:01:05;25.4;;;2.9;;
63690;SDS011;49837;57.280;27.070;2023-05-01T06:02:05;4.4;;;1.6;;
63690;SDS011;49837;57.280;27.070;2023-05-01T06:03:06;8.1;;;1.5;;
63690;SDS011;49837;57.280;27.070;2023-05-01T06:04:06;3.7;;;1.3;;
63690;SDS011;49837;57.280;27.070;2023-05-01T06:05:07;2.0;;;1.2;;
63690;SDS011;49837;57.280;27.070;2023-05-01T06:06:07;1.6;;;1.2;;
63690;SDS011;49837;57.280;27.070;2023-05-01T06:07:07;2.2;;;1.2;;
63690;SDS011;49837;57.280;27.070;2023-05-01T06:08:08;3.2;;;1.4;;
63690;SDS011;49837;57.280;27.070;2023-05-01T06:09:08;1.5;;;1.1;;
63690;SDS011;49837;57.280;27.070;2023-05-01T06:10:09;2.5;;;1.4;;
63690;SDS011;49837;57.280;27.070;2023-05-01T06:11:09;4.4;;;1.2;;
63690;SDS011;49837;57.280;27.070;2023-05-01T06:12:09;3.0;;;1.4;;
63690;SDS011;49837;57.280;27.070;2023-05-01T06:13:10;1.4;;;1.2;;
63690;SDS011;49837;57.280;27.070;2023-05-01T06:14:10;2.2;;;1.3;;
63690;SDS011;49837;57.280;27.070;2023-05-01T06:15:10;36.0;;;3.3;;
63690;SDS011;49837;57.280;27.070;2023-05-01T06:16:11;73.2;;;7.0;;
63690;SDS011;49837;57.280;27.070;2023-05-01T06:17:11;8.5;;;1.4;;
63690;SDS011;49837;57.280;27.070;2023-05-01T06:18:11;212.5;;;24.8;;
63690;SDS011;49837;57.280;27.070;2023-05-01T06:19:12;4.3;;;1.4;;
63690;SDS011;49837;57.280;27.070;2023-05-01T06:20:12;39.6;;;4.7;;
63690;SDS011;49837;57.280;27.070;2023-05-01T06:21:12;3.3;;;1.4;;